Time;durP1;ratioP1;P1;durP2;ratioP2;P2;SDS_P1;SDS_P2;PMS_P1;PMS_P2;Temp;Humidity;BMP_temperature;BMP_pressure;BME280_temperature;BME280_humidity;BME280_pressure;Samples;Min_cycle;Max_cycle;Signal;HPM_P1;HPM_P2
2023/10/17 00:00:58;;;;;;;3.73;1.43;;;;;;;5.07;99.78;101650.56;5075590;28;20528;-69
2023/10/17 00:03:25;;;;;;;8.47;3.87;;;;;;;5.19;99.57;101644.34;5075301;28;20433;-69
2023/10/17 00:05:55;;;;;;;5.23;2.60;;;;;;;5.27;98.93;101642.09;5075104;28;20504;-68
2023/10/17 00:08:21;;;;;;;4.33;2.40;;;;;;;5.23;99.27;101645.50;5089439;22;20486;-68
2023/10/17 00:10:49;;;;;;;5.63;2.10;;;;;;;5.29;99.48;101645.34;5074674;28;20520;-70
2023/10/17 00:13:28;;;;;;;2.40;1.30;;;;;;;5.32;99.59;101642.19;5074757;28;20445;-70
2023/10/17 00:15:55;;;;;;;2.90;1.30;;;;;;;5.38;99.65;101645.78;5074336;28;20939;-70
2023/10/17 00:18:25;;;;;;;7.87;3.60;;;;;;;5.41;99.80;101642.63;5074649;28;20449;-70
2023/10/17 00:20:53;;;;;;;3.43;1.37;;;;;;;5.47;99.84;101649.72;5074867;28;20457;-70
2023/10/17 00:23:22;;;;;;;3.00;1.70;;;;;;;5.50;99.97;101646.56;5074885;28;20535;-70
2023/10/17 00:25:49;;;;;;;2.87;1.20;;;;;;;5.58;99.91;101650.72;5074638;28;20485;-70
2023/10/17 00:28:20;;;;;;;5.23;2.23;;;;;;;5.60;100.00;101648.59;5074471;28;20791;-70
2023/10/17 00:30:48;;;;;;;5.77;3.57;;;;;;;5.59;100.00;101649.66;5075018;28;20422;-70
2023/10/17 00:33:20;;;;;;;3.87;1.80;;;;;;;5.66;100.00;101650.31;5074010;28;20967;-70
2023/10/17 00:35:48;;;;;;;3.33;1.67;;;;;;;5.74;100.00;101646.44;5073865;28;20815;-70
2023/10/17 00:38:17;;;;;;;8.20;1.97;;;;;;;5.77;100.00;101638.69;5074945;28;20433;-70
2023/10/17 00:40:49;;;;;;;4.40;2.13;;;;;;;5.79;100.00;101649.19;5074189;28;20511;-70
2023/10/17 00:43:16;;;;;;;5.70;2.17;;;;;;;5.75;100.00;101646.19;5074142;28;20433;-70
2023/10/17 00:45:45;;;;;;;2.67;1.43;;;;;;;5.80;100.00;101643.59;5073994;28;20501;-70
2023/10/17 00:48:18;;;;;;;5.57;2.33;;;;;;;5.87;99.38;101640.75;5074104;28;20495;-68
2023/10/17 00:50:47;;;;;;;5.40;1.83;;;;;;;5.87;98.59;101634.56;5074064;28;20517;-69
2023/10/17 00:53:14;;;;;;;3.73;1.33;;;;;;;5.85;97.44;101636.69;5073935;28;20518;-69
2023/10/17 00:55:50;;;;;;;7.60;2.97;;;;;;;5.77;96.73;101643.25;5074289;28;20532;-69
2023/10/17 00:58:18;;;;;;;3.33;1.57;;;;;;;5.74;97.68;101633.00;5074039;28;20425;-69
2023/10/17 01:00:49;;;;;;;5.13;2.00;;;;;;;5.79;97.31;101633.06;5073721;28;20803;-69
2023/10/17 01:03:16;;;;;;;3.00;1.40;;;;;;;5.77;95.57;101630.63;5073853;28;20460;-69
2023/10/17 01:05:57;;;;;;;3.23;1.47;;;;;;;5.75;97.16;101631.91;5073749;28;20481;-69
2023/10/17 01:08:27;;;;;;;3.93;2.00;;;;;;;5.81;98.03;101626.41;5073491;28;20799;-69
2023/10/17 01:10:55;;;;;;;4.97;2.50;;;;;;;5.91;98.59;101622.25;5073690;28;20441;-69
2023/10/17 01:13:26;;;;;;;4.90;1.73;;;;;;;5.97;98.94;101627.50;5074048;28;20445;-69
2023/10/17 01:15:53;;;;;;;2.83;1.37;;;;;;;6.00;99.32;101623.50;5073593;28;20418;-69
2023/10/17 01:18:20;;;;;;;3.23;1.00;;;;;;;6.02;99.86;101624.06;5074023;28;20528;-69
2023/10/17 01:20:46;;;;;;;3.03;1.27;;;;;;;6.01;100.00;101634.00;5073632;28;20433;-69
2023/10/17 01:23:14;;;;;;;5.10;2.43;;;;;;;6.10;100.00;101623.66;5073297;28;21127;-70
2023/10/17 01:25:42;;;;;;;4.47;2.13;;;;;;;6.11;100.00;101627.16;5073416;28;21007;-70
2023/10/17 01:28:10;;;;;;;3.63;1.90;;;;;;;6.14;100.00;101627.50;5073420;28;20461;-70
2023/10/17 01:30:41;;;;;;;5.77;1.80;;;;;;;6.23;100.00;101626.00;5073533;28;20861;-70
2023/10/17 01:33:08;;;;;;;3.73;1.13;;;;;;;6.30;100.00;101621.28;5073204;28;20421;-70
2023/10/17 01:35:36;;;;;;;10.03;2.50;;;;;;;6.30;100.00;101623.16;5073544;28;20433;-70
2023/10/17 01:38:02;;;;;;;3.30;1.63;;;;;;;6.27;100.00;101619.09;5073311;28;20472;-69
2023/10/17 01:40:32;;;;;;;2.87;1.10;;;;;;;6.38;100.00;101622.75;5073734;28;20444;-69
2023/10/17 01:43:00;;;;;;;4.00;2.40;;;;;;;6.38;100.00;101619.25;5073392;28;20520;-70
2023/10/17 01:45:29;;;;;;;4.67;1.80;;;;;;;6.40;100.00;101630.56;5073401;28;20520;-70
2023/10/17 01:47:56;;;;;;;4.13;2.37;;;;;;;6.44;100.00;101615.56;5073234;28;20493;-70
2023/10/17 01:50:24;;;;;;;2.70;1.33;;;;;;;6.46;100.00;101625.03;5073354;28;20473;-70
2023/10/17 01:52:53;;;;;;;4.93;2.03;;;;;;;6.49;100.00;101621.00;5073280;28;20445;-70
2023/10/17 01:55:24;;;;;;;3.40;1.57;;;;;;;6.55;100.00;101625.38;5073883;28;20809;-70
2023/10/17 01:57:54;;;;;;;2.57;1.17;;;;;;;6.54;100.00;101623.75;5073225;28;20457;-70
2023/10/17 02:00:24;;;;;;;4.90;1.70;;;;;;;6.54;100.00;101626.44;5073219;28;20445;-70
2023/10/17 02:02:54;;;;;;;3.33;1.23;;;;;;;6.57;100.00;101615.19;5073264;28;20429;-69
2023/10/17 02:05:21;;;;;;;2.63;1.33;;;;;;;6.51;100.00;101621.59;5073379;28;20514;-69
2023/10/17 02:07:48;;;;;;;4.33;1.57;;;;;;;6.53;100.00;101622.97;5072933;28;20548;-69
2023/10/17 02:10:17;;;;;;;2.53;1.23;;;;;;;6.54;100.00;101621.06;5073112;28;20422;-69
2023/10/17 02:12:44;;;;;;;6.90;2.10;;;;;;;6.55;100.00;101625.38;5074839;28;20544;-69
2023/10/17 02:15:12;;;;;;;3.47;1.67;;;;;;;6.51;98.31;101625.09;5077045;28;20441;-69
2023/10/17 02:17:40;;;;;;;2.73;1.20;;;;;;;6.53;98.77;101624.84;5077290;28;20461;-69
2023/10/17 02:20:20;;;;;;;6.10;2.57;;;;;;;6.48;97.24;101624.78;5077318;28;20437;-69
2023/10/17 02:22:49;;;;;;;3.13;1.67;;;;;;;6.42;99.12;101623.03;5076890;28;20421;-69
2023/10/17 02:25:21;;;;;;;4.87;1.80;;;;;;;6.50;99.83;101614.56;5077076;28;20441;-69
2023/10/17 02:27:48;;;;;;;3.40;1.83;;;;;;;6.53;100.00;101630.22;5077263;28;20518;-69
2023/10/17 02:30:15;;;;;;;7.80;2.37;;;;;;;6.61;100.00;101626.28;5076694;28;20447;-69
2023/10/17 02:32:51;;;;;;;4.90;1.50;;;;;;;6.55;100.00;101614.63;5076692;28;20813;-69
2023/10/17 02:35:22;;;;;;;2.43;1.20;;;;;;;6.54;100.00;101619.19;5076537;28;20418;-69
2023/10/17 02:37:49;;;;;;;5.13;2.53;;;;;;;6.54;100.00;101626.44;5076914;28;20465;-69
2023/10/17 02:40:20;;;;;;;4.33;1.80;;;;;;;6.59;100.00;101615.75;5076834;28;20516;-69
2023/10/17 02:42:48;;;;;;;3.70;1.93;;;;;;;6.67;100.00;101620.72;5076706;28;20424;-69
2023/10/17 02:45:24;;;;;;;3.07;1.67;;;;;;;6.68;100.00;101622.34;5076412;28;20491;-69
2023/10/17 02:47:53;;;;;;;3.33;1.00;;;;;;;6.65;100.00;101625.53;5076085;28;20453;-69
2023/10/17 02:50:26;;;;;;;3.50;1.73;;;;;;;6.75;100.00;101639.13;5076339;28;20430;-70
2023/10/17 02:52:53;;;;;;;7.43;2.93;;;;;;;6.78;100.00;101627.88;5076966;28;20508;-70
2023/10/17 02:55:23;;;;;;;6.10;2.17;;;;;;;6.76;100.00;101624.59;5076693;28;20909;-70
2023/10/17 02:57:52;;;;;;;5.97;2.47;;;;;;;6.77;100.00;101636.19;5076176;28;20491;-70
2023/10/17 03:00:23;;;;;;;4.80;2.73;;;;;;;6.76;100.00;101621.91;5076172;28;20491;-70
2023/10/17 03:02:52;;;;;;;6.10;1.70;;;;;;;6.70;100.00;101625.59;5076220;28;20426;-70
2023/10/17 03:05:19;;;;;;;7.73;2.73;;;;;;;6.74;100.00;101626.75;5076125;28;20499;-70
2023/10/17 03:07:49;;;;;;;3.07;1.70;;;;;;;6.74;100.00;101632.13;5075710;28;20493;-70
2023/10/17 03:10:23;;;;;;;5.27;2.33;;;;;;;6.73;100.00;101618.91;5076475;28;20418;-70
2023/10/17 03:12:55;;;;;;;5.70;2.87;;;;;;;6.70;100.00;101631.00;5075989;28;20432;-70
2023/10/17 03:15:23;;;;;;;5.20;2.13;;;;;;;6.73;100.00;101629.66;5075969;28;20418;-70
2023/10/17 03:17:54;;;;;;;5.90;2.40;;;;;;;6.74;100.00;101626.75;5075939;28;20466;-70
2023/10/17 03:20:35;;;;;;;6.67;3.03;;;;;;;6.69;100.00;101624.00;5076201;28;20421;-70
2023/10/17 03:23:04;;;;;;;5.10;1.90;;;;;;;6.75;100.00;101624.84;5076065;28;20463;-70
2023/10/17 03:25:37;;;;;;;4.03;1.87;;;;;;;6.77;100.00;101620.88;5075690;28;20441;-70
2023/10/17 03:28:08;;;;;;;4.70;1.93;;;;;;;6.74;100.00;101626.75;5075697;28;20879;-68
2023/10/17 03:30:35;;;;;;;3.77;2.07;;;;;;;6.77;100.00;101628.09;5075340;28;20465;-70
2023/10/17 03:33:13;;;;;;;5.97;3.20;;;;;;;6.75;100.00;101622.16;5075570;28;20494;-70
2023/10/17 03:35:56;;;;;;;4.27;1.90;;;;;;;6.75;100.00;101620.28;5075264;28;20799;-70
2023/10/17 03:38:26;;;;;;;3.70;1.73;;;;;;;6.70;99.50;101622.91;5075488;28;20510;-70
2023/10/17 03:40:54;;;;;;;3.80;2.03;;;;;;;6.63;100.00;101619.59;5075182;28;20475;-70
2023/10/17 03:43:22;;;;;;;8.53;2.40;;;;;;;6.67;100.00;101618.03;5075783;28;20441;-70
2023/10/17 03:45:58;;;;;;;3.30;1.40;;;;;;;6.68;100.00;101614.25;5075167;28;20437;-70
2023/10/17 03:48:28;;;;;;;3.93;1.90;;;;;;;6.72;100.00;101628.84;5075642;28;20430;-70
2023/10/17 03:51:10;;;;;;;3.43;1.03;;;;;;;6.77;100.00;101625.41;5075255;28;20796;-70
2023/10/17 03:53:42;;;;;;;7.77;2.90;;;;;;;6.75;100.00;101619.47;5075153;28;20897;-70
2023/10/17 03:56:11;;;;;;;5.70;2.20;;;;;;;6.77;100.00;101620.03;5074776;28;20503;-70
2023/10/17 03:58:49;;;;;;;3.93;1.77;;;;;;;6.86;100.00;101623.09;5075092;28;20819;-70
2023/10/17 04:01:18;;;;;;;5.47;1.83;;;;;;;6.85;100.00;101627.66;5075396;28;20516;-70
2023/10/17 04:03:45;;;;;;;4.47;2.10;;;;;;;6.85;100.00;101626.88;5074878;28;20434;-70
2023/10/17 04:06:23;;;;;;;4.10;1.57;;;;;;;6.88;100.00;101626.38;5074728;28;20489;-70
2023/10/17 04:08:50;;;;;;;6.17;2.17;;;;;;;6.88;100.00;101615.59;5074988;28;20453;-70
2023/10/17 04:11:25;;;;;;;3.73;1.77;;;;;;;6.89;100.00;101619.91;5074818;28;20533;-70
2023/10/17 04:13:53;;;;;;;4.33;0.97;;;;;;;6.94;100.00;101617.28;5074514;28;20421;-70
2023/10/17 04:16:26;;;;;;;3.73;1.47;;;;;;;6.93;100.00;101623.75;5074849;28;20504;-70
2023/10/17 04:18:55;;;;;;;3.33;1.60;;;;;;;6.97;100.00;101624.88;5074925;28;20775;-70
2023/10/17 04:21:29;;;;;;;2.83;1.20;;;;;;;6.88;100.00;101619.09;5074672;28;20444;-70
2023/10/17 04:23:59;;;;;;;5.77;2.37;;;;;;;6.90;100.00;101626.91;5074498;28;20889;-70
2023/10/17 04:26:28;;;;;;;2.30;0.77;;;;;;;6.83;100.00;101627.94;5074762;28;20493;-70
2023/10/17 04:28:55;;;;;;;6.80;2.27;;;;;;;6.92;100.00;101632.88;5057270;28;20448;-70
2023/10/17 04:31:26;;;;;;;4.10;1.93;;;;;;;6.99;100.00;101630.81;5074289;28;20472;-70
2023/10/17 04:33:56;;;;;;;3.03;1.13;;;;;;;7.00;100.00;101629.75;5074185;28;20421;-70
2023/10/17 04:36:26;;;;;;;2.40;1.20;;;;;;;7.06;100.00;101636.81;5073762;28;20453;-70
2023/10/17 04:41:41;;;;;;;4.30;1.70;;;;;;;7.12;100.00;101626.91;5073276;28;20808;-70
2023/10/17 04:44:15;;;;;;;4.07;1.47;;;;;;;7.12;100.00;101635.00;5073909;28;20426;-70
2023/10/17 04:46:49;;;;;;;3.20;2.00;;;;;;;7.08;100.00;101637.38;5073549;28;20499;-70
2023/10/17 04:49:18;;;;;;;4.00;1.70;;;;;;;7.04;100.00;101626.31;5073834;28;20418;-70
2023/10/17 04:51:51;;;;;;;2.90;1.30;;;;;;;7.01;100.00;101628.69;5073794;28;20794;-70
2023/10/17 04:54:22;;;;;;;3.77;1.10;;;;;;;7.01;100.00;101628.69;5073710;28;20430;-70
2023/10/17 04:56:59;;;;;;;4.60;1.63;;;;;;;6.96;100.00;101636.72;5073912;28;20541;-70
2023/10/17 04:59:41;;;;;;;4.60;2.03;;;;;;;6.98;100.00;101637.25;5073931;28;20433;-70
2023/10/17 05:02:35;;;;;;;2.70;1.33;;;;;;;6.99;100.00;101633.50;5074212;28;20527;-69
2023/10/17 05:08:04;;;;;;;5.83;1.80;;;;;;;7.02;100.00;101633.00;5073493;28;20843;-69
2023/10/17 06:19:15;;;;;;;2.50;0.93;;;;;;;7.42;100.00;101689.25;5097081;28;20396;-67
2023/10/17 06:22:35;;;;;;;5.47;1.90;;;;;;;7.47;100.00;101688.50;5097267;28;20435;-66
2023/10/17 06:35:26;;;;;;;2.80;0.83;;;;;;;7.77;100.00;101699.59;5093468;28;20447;-65
2023/10/17 06:37:51;;;;;;;3.53;1.53;;;;;;;7.87;100.00;101695.38;5096709;28;20951;-69
2023/10/17 06:40:18;;;;;;;4.87;2.10;;;;;;;7.89;100.00;101706.72;5096538;28;20534;-66
2023/10/17 06:42:49;;;;;;;3.17;0.93;;;;;;;7.91;100.00;101704.59;5096765;28;20256;-66
2023/10/17 06:45:19;;;;;;;3.27;1.90;;;;;;;7.96;100.00;101707.31;5097026;28;20429;-66
2023/10/17 06:47:48;;;;;;;2.30;0.77;;;;;;;8.01;100.00;101710.06;5096913;28;20488;-67
2023/10/17 06:50:20;;;;;;;3.23;1.70;;;;;;;8.05;100.00;101711.19;5096487;28;20432;-67
2023/10/17 06:53:01;;;;;;;3.20;1.50;;;;;;;8.12;100.00;101719.88;5097005;28;20421;-66
2023/10/17 06:55:29;;;;;;;4.40;1.20;;;;;;;8.18;100.00;101710.75;5096601;28;20425;-66
2023/10/17 06:58:04;;;;;;;3.23;1.13;;;;;;;8.24;100.00;101725.94;5096095;28;20550;-67
2023/10/17 07:00:43;;;;;;;2.90;1.30;;;;;;;8.26;100.00;101725.69;5096811;28;20786;-67
2023/10/17 07:03:13;;;;;;;4.13;1.20;;;;;;;8.27;100.00;101725.41;5096525;28;20420;-67
2023/10/17 07:05:39;;;;;;;2.30;0.80;;;;;;;8.28;100.00;101727.06;5096628;28;20440;-67
2023/10/17 07:08:13;;;;;;;3.20;1.23;;;;;;;8.34;100.00;101736.00;5096211;28;20571;-67
2023/10/17 07:10:53;;;;;;;4.50;1.60;;;;;;;8.33;100.00;101728.97;5096249;28;20425;-68
2023/10/17 07:14:23;;;;;;;2.70;1.27;;;;;;;8.26;100.00;101731.06;5096807;28;20478;-67
2023/10/17 07:17:00;;;;;;;3.80;2.10;;;;;;;8.21;100.00;101729.16;5096696;28;20456;-67
2023/10/17 07:22:14;;;;;;;3.63;1.90;;;;;;;8.23;100.00;101735.09;5096312;28;20411;-67
2023/10/17 07:24:44;;;;;;;3.00;1.00;;;;;;;8.25;100.00;101730.25;5097007;28;20527;-67
2023/10/17 07:27:19;;;;;;;2.80;1.10;;;;;;;8.32;100.00;101728.16;5095880;28;20488;-67
2023/10/17 07:29:58;;;;;;;2.40;1.10;;;;;;;8.39;100.00;101727.16;5095774;28;20413;-67
2023/10/17 07:32:32;;;;;;;2.53;0.93;;;;;;;8.46;100.00;101738.56;5096028;28;20479;-67
2023/10/17 07:35:01;;;;;;;3.13;1.10;;;;;;;8.53;100.00;101739.97;5096268;28;20523;-67
2023/10/17 07:37:33;;;;;;;3.27;1.60;;;;;;;8.55;100.00;101731.63;5095854;28;20449;-67
2023/10/17 07:43:00;;;;;;;4.30;2.43;;;;;;;8.75;100.00;101720.94;5152724;27;20965;-67
2023/10/17 07:45:32;;;;;;;3.57;1.37;;;;;;;8.86;100.00;101721.00;5153049;27;20440;-66
2023/10/17 07:48:01;;;;;;;4.50;1.70;;;;;;;8.87;100.00;101722.63;5152584;27;20465;-67
2023/10/17 07:50:32;;;;;;;4.80;1.77;;;;;;;8.95;100.00;101714.03;5153045;27;20445;-66
2023/10/17 07:53:05;;;;;;;3.40;1.20;;;;;;;9.06;100.00;101731.91;5152724;27;20414;-66
2023/10/17 07:55:38;;;;;;;3.63;1.60;;;;;;;9.16;100.00;101720.34;5152939;27;20519;-67
2023/10/17 07:58:09;;;;;;;3.67;2.07;;;;;;;9.22;100.00;101722.81;5152354;27;20450;-66
2023/10/17 08:00:36;;;;;;;6.47;1.90;;;;;;;9.26;100.00;101725.81;5152156;27;20433;-66
2023/10/17 08:03:09;;;;;;;2.50;1.10;;;;;;;9.31;100.00;101733.94;5152296;27;20849;-66
2023/10/17 08:05:38;;;;;;;3.13;1.77;;;;;;;9.41;100.00;101725.88;5152254;27;20474;-66
2023/10/17 08:08:08;;;;;;;3.90;1.47;;;;;;;9.49;100.00;101719.94;5152711;27;20457;-66
2023/10/17 08:10:36;;;;;;;3.87;1.77;;;;;;;9.63;100.00;101728.38;5152631;27;20836;-66
2023/10/17 08:13:03;;;;;;;3.60;1.93;;;;;;;9.73;100.00;101725.69;5152163;27;20477;-66
2023/10/17 08:15:36;;;;;;;2.80;1.20;;;;;;;9.78;100.00;101716.75;5152561;27;20438;-66
2023/10/17 08:18:06;;;;;;;3.33;1.30;;;;;;;9.84;100.00;101715.72;5151895;27;20544;-66
2023/10/17 08:23:21;;;;;;;4.20;2.20;;;;;;;9.99;100.00;101718.44;5151671;27;20398;-66
2023/10/17 08:25:53;;;;;;;2.90;1.57;;;;;;;10.04;100.00;101723.84;5151711;27;20940;-66
2023/10/17 08:28:37;;;;;;;3.70;1.60;;;;;;;10.07;99.85;101723.31;5152347;27;20816;-66
2023/10/17 08:31:22;;;;;;;3.50;1.53;;;;;;;10.17;99.65;101724.41;5151923;27;20410;-66
2023/10/17 08:33:56;;;;;;;3.73;1.40;;;;;;;10.24;99.19;101722.25;5152090;27;20422;-66
2023/10/17 08:36:28;;;;;;;5.10;1.63;;;;;;;10.32;98.97;101725.25;5151713;27;20817;-66
2023/10/17 08:38:55;;;;;;;3.73;1.90;;;;;;;10.33;98.60;101717.94;5152004;27;20513;-66
2023/10/17 08:41:23;;;;;;;2.70;1.13;;;;;;;10.38;98.00;101726.06;5151327;27;20560;-66
2023/10/17 08:43:49;;;;;;;4.00;1.30;;;;;;;10.47;97.55;101723.63;5151530;27;20499;-66
2023/10/17 08:46:17;;;;;;;3.00;1.20;;;;;;;10.58;97.27;101723.34;5151529;27;20473;-66
2023/10/17 08:48:45;;;;;;;3.47;1.50;;;;;;;10.64;96.78;101724.16;5151508;27;20862;-66
2023/10/17 08:51:12;;;;;;;2.83;0.80;;;;;;;10.71;95.33;101719.25;5151158;27;20517;-66
2023/10/17 08:53:39;;;;;;;4.20;1.57;;;;;;;10.85;94.38;101724.94;5141167;27;20465;-66
2023/10/17 08:56:08;;;;;;;3.37;1.47;;;;;;;10.96;92.34;101725.72;5137929;27;20818;-66
2023/10/17 08:58:36;;;;;;;2.77;0.80;;;;;;;11.00;90.73;101726.78;5137816;27;20489;-66
2023/10/17 09:01:11;;;;;;;4.63;2.13;;;;;;;11.09;88.81;101727.84;5137686;27;20447;-66
2023/10/17 09:03:43;;;;;;;2.73;1.20;;;;;;;11.17;88.00;101727.28;5137718;27;20471;-66
2023/10/17 09:08:56;;;;;;;3.13;0.80;;;;;;;11.36;86.11;101722.84;5137067;27;20398;-66
2023/10/17 09:11:30;;;;;;;2.90;1.13;;;;;;;11.46;84.99;101713.03;5137195;27;20462;-66
2023/10/17 09:14:16;;;;;;;2.87;1.23;;;;;;;11.54;84.32;101726.03;5137134;27;20423;-66
2023/10/17 09:16:50;;;;;;;2.30;0.80;;;;;;;11.59;82.56;101728.72;5137294;27;20463;-66
2023/10/17 09:19:20;;;;;;;2.50;0.80;;;;;;;11.64;80.96;101720.53;5137069;27;20423;-66
2023/10/17 09:21:49;;;;;;;2.20;0.60;;;;;;;11.75;80.49;101719.41;5136940;27;20470;-66
2023/10/17 09:24:32;;;;;;;3.00;0.73;;;;;;;11.83;80.38;101720.75;5137084;27;20439;-66
2023/10/17 09:26:59;;;;;;;2.93;0.80;;;;;;;11.86;76.92;101731.84;5137441;27;20504;-66
2023/10/17 09:29:27;;;;;;;3.53;1.37;;;;;;;11.81;73.84;101720.16;5136914;27;20427;-66
2023/10/17 09:31:55;;;;;;;2.13;0.60;;;;;;;11.84;71.41;101725.88;5137127;27;20431;-66
2023/10/17 09:34:26;;;;;;;3.00;0.83;;;;;;;11.92;72.25;101731.81;5136439;27;20434;-67
2023/10/17 09:37:01;;;;;;;2.07;0.60;;;;;;;11.95;70.83;101723.91;5136716;27;20454;-66
2023/10/17 09:39:33;;;;;;;2.43;0.73;;;;;;;11.96;70.56;101722.03;5136984;27;20427;-67
2023/10/17 09:41:59;;;;;;;2.10;0.60;;;;;;;12.06;70.75;101728.19;5136397;27;20521;-67
2023/10/17 09:44:26;;;;;;;2.27;0.70;;;;;;;12.15;71.95;101731.09;5136843;27;20526;-65
2023/10/17 09:46:57;;;;;;;4.57;1.17;;;;;;;12.21;73.93;101729.97;5136441;27;20455;-64
2023/10/17 09:49:34;;;;;;;3.53;1.30;;;;;;;12.24;74.38;101726.69;5136608;27;20481;-66
2023/10/17 09:52:01;;;;;;;3.27;1.20;;;;;;;12.34;74.32;101723.88;5136767;27;20433;-66
2023/10/17 09:54:35;;;;;;;6.33;0.93;;;;;;;12.39;72.96;101728.47;5136711;27;20470;-66
2023/10/17 09:57:03;;;;;;;2.43;1.07;;;;;;;12.37;73.42;101720.59;5136303;27;20486;-66
2023/10/17 09:59:41;;;;;;;2.10;0.83;;;;;;;12.42;73.68;101713.50;5136195;27;20834;-66
2023/10/17 10:02:09;;;;;;;2.10;0.60;;;;;;;12.47;73.47;101716.97;5136461;27;20465;-66
2023/10/17 10:04:38;;;;;;;2.07;0.63;;;;;;;12.49;71.53;101714.00;5135203;27;20529;-66
2023/10/17 10:07:20;;;;;;;2.30;0.80;;;;;;;12.45;71.97;101712.94;5135764;27;20459;-66
2023/10/17 10:09:47;;;;;;;1.80;0.40;;;;;;;12.38;68.87;101714.06;5134184;27;20533;-66
2023/10/17 10:12:14;;;;;;;2.03;0.67;;;;;;;12.33;68.40;101711.41;5135637;27;20438;-66
2023/10/17 10:14:42;;;;;;;2.47;0.70;;;;;;;12.29;67.38;101715.78;5136052;27;20513;-66
2023/10/17 10:17:09;;;;;;;2.67;0.70;;;;;;;12.41;67.99;101706.44;5135853;27;20467;-66
2023/10/17 10:20:00;;;;;;;2.00;0.50;;;;;;;12.48;67.33;101701.47;5135912;27;20527;-66
2023/10/17 10:22:52;;;;;;;2.00;0.50;;;;;;;12.61;66.00;101700.81;5135569;27;20489;-66
2023/10/17 10:25:20;;;;;;;2.00;0.50;;;;;;;12.58;65.36;101698.69;5135889;27;20445;-66
2023/10/17 10:27:49;;;;;;;2.00;0.60;;;;;;;12.61;66.29;101692.66;5136254;27;20447;-66
2023/10/17 10:30:43;;;;;;;2.20;0.63;;;;;;;12.64;64.93;101689.38;5136045;27;20503;-66
2023/10/17 10:33:11;;;;;;;1.90;0.50;;;;;;;12.75;65.07;101703.66;5136145;27;20556;-66
2023/10/17 10:35:45;;;;;;;2.00;0.60;;;;;;;12.81;66.48;101691.66;5135609;27;20434;-66
2023/10/17 10:38:11;;;;;;;1.80;0.40;;;;;;;12.89;66.57;101693.72;5135547;27;20502;-66
2023/10/17 10:40:40;;;;;;;3.03;0.60;;;;;;;12.76;59.22;101689.78;5135167;27;20464;-66
2023/10/17 10:43:09;;;;;;;1.73;0.40;;;;;;;12.74;59.56;101694.69;5135569;27;20467;-66
2023/10/17 10:45:40;;;;;;;1.90;0.50;;;;;;;12.73;60.00;101689.56;5136972;27;20439;-68
2023/10/17 10:48:14;;;;;;;1.90;0.50;;;;;;;12.67;61.36;101677.94;5137634;27;20455;-66
2023/10/17 10:50:43;;;;;;;1.90;0.40;;;;;;;12.63;62.17;101674.16;5135673;27;20419;-66
2023/10/17 10:53:20;;;;;;;1.80;0.40;;;;;;;12.57;61.00;101680.72;5135433;27;20450;-66
2023/10/17 10:55:57;;;;;;;2.13;0.53;;;;;;;12.55;64.12;101674.78;5135651;27;20436;-66
2023/10/17 10:58:25;;;;;;;2.30;0.60;;;;;;;12.42;63.37;101673.53;5135292;27;20520;-66
2023/10/17 11:00:54;;;;;;;2.00;0.60;;;;;;;12.33;61.70;101676.06;5135111;27;20435;-66
2023/10/17 11:03:22;;;;;;;2.00;0.50;;;;;;;12.27;61.39;101668.28;5134934;27;20474;-66
2023/10/17 11:05:58;;;;;;;2.53;0.50;;;;;;;12.25;62.53;101670.44;5134677;27;20809;-66
2023/10/17 11:08:25;;;;;;;2.97;0.60;;;;;;;12.21;64.21;101672.91;5135010;27;20425;-66
2023/10/17 11:11:00;;;;;;;1.90;0.47;;;;;;;12.14;65.34;101668.94;5135538;27;20517;-66
2023/10/17 11:13:32;;;;;;;1.77;0.40;;;;;;;12.09;64.06;101665.16;5134862;27;20415;-66
2023/10/17 11:15:59;;;;;;;1.80;0.40;;;;;;;12.06;65.07;101673.06;5134770;27;20415;-66
2023/10/17 11:18:25;;;;;;;1.80;0.40;;;;;;;12.05;65.36;101666.00;5134581;27;20439;-66
2023/10/17 11:20:56;;;;;;;2.00;0.60;;;;;;;12.02;65.99;101659.22;5134767;27;20438;-67
2023/10/17 11:23:26;;;;;;;1.80;0.40;;;;;;;11.98;66.20;101663.59;5134666;27;20549;-66
2023/10/17 11:25:54;;;;;;;2.03;0.40;;;;;;;11.95;67.23;101658.72;5135010;27;20423;-65
2023/10/17 11:28:22;;;;;;;1.80;0.40;;;;;;;11.90;68.79;101655.25;5134795;27;20521;-65
2023/10/17 11:30:50;;;;;;;1.80;0.40;;;;;;;11.83;67.54;101650.16;5134698;27;20470;-65
2023/10/17 11:33:18;;;;;;;1.80;0.40;;;;;;;11.80;67.30;101656.94;5134587;27;20533;-65
2023/10/17 11:35:49;;;;;;;2.37;0.70;;;;;;;11.79;66.96;101652.59;5134309;27;20477;-66
2023/10/17 11:38:34;;;;;;;1.80;0.40;;;;;;;11.82;68.66;101645.78;5134936;27;20490;-65
2023/10/17 11:41:02;;;;;;;2.20;0.60;;;;;;;11.82;70.84;101652.06;5134712;27;20453;-65
2023/10/17 11:43:33;;;;;;;2.60;0.40;;;;;;;11.73;68.59;101648.31;5134799;27;20474;-65
2023/10/17 11:46:01;;;;;;;2.17;0.70;;;;;;;11.72;67.63;101649.38;5134531;27;20418;-65
2023/10/17 11:48:29;;;;;;;2.60;0.60;;;;;;;11.74;68.19;101644.50;5134923;27;20525;-65
2023/10/17 11:51:06;;;;;;;2.13;0.60;;;;;;;11.72;67.61;101643.94;5134390;27;20427;-65
2023/10/17 11:53:34;;;;;;;2.00;0.57;;;;;;;11.66;65.85;101638.84;5134958;27;20518;-65
2023/10/17 11:56:01;;;;;;;1.87;0.57;;;;;;;11.68;64.44;101637.47;5134051;27;20441;-65
2023/10/17 11:58:29;;;;;;;2.13;0.50;;;;;;;11.73;66.92;101631.19;5134918;27;20511;-65
2023/10/17 12:00:56;;;;;;;2.67;0.70;;;;;;;11.73;67.86;101631.19;5134666;27;20439;-65
2023/10/17 12:03:25;;;;;;;2.13;0.70;;;;;;;11.75;69.33;101635.25;5133977;27;20478;-65
2023/10/17 12:05:53;;;;;;;3.30;0.70;;;;;;;11.74;69.81;101633.63;5134256;27;20496;-65
2023/10/17 12:08:23;;;;;;;2.70;0.77;;;;;;;11.75;70.47;101632.53;5146526;22;20501;-71
2023/10/17 12:10:53;;;;;;;2.67;1.00;;;;;;;11.79;70.65;101630.88;5073046;28;20476;-69
2023/10/17 12:13:20;;;;;;;2.47;0.87;;;;;;;11.81;70.06;101627.88;5073054;28;20428;-71
2023/10/17 12:15:47;;;;;;;1.90;0.50;;;;;;;11.82;66.68;101618.63;5073372;28;20528;-68
2023/10/17 12:18:14;;;;;;;1.90;0.50;;;;;;;11.86;66.64;101625.97;5073097;28;20437;-73
2023/10/17 12:20:41;;;;;;;1.90;0.50;;;;;;;11.90;67.71;101631.63;5073233;28;20438;-70
2023/10/17 12:23:09;;;;;;;1.70;0.37;;;;;;;11.88;67.94;101627.59;5073287;28;20503;-71
2023/10/17 12:25:36;;;;;;;2.40;0.90;;;;;;;11.91;67.61;101627.84;5073120;28;20434;-71
2023/10/17 12:28:06;;;;;;;2.30;0.60;;;;;;;11.92;66.99;101624.03;5073939;28;20895;-73
2023/10/17 12:30:36;;;;;;;1.93;0.57;;;;;;;11.94;67.01;101626.44;5076693;28;20433;-72
2023/10/17 12:33:04;;;;;;;2.73;0.70;;;;;;;11.86;66.48;101625.97;5076811;28;20513;-71
2023/10/17 12:35:31;;;;;;;1.87;0.47;;;;;;;11.82;66.04;101619.50;5077214;28;20443;-71
2023/10/17 12:37:59;;;;;;;2.23;0.60;;;;;;;11.92;66.21;101613.16;5076498;28;20985;-72
2023/10/17 12:40:30;;;;;;;2.47;0.60;;;;;;;11.99;66.08;101621.78;5076499;28;20447;-72
2023/10/17 12:42:56;;;;;;;1.80;0.50;;;;;;;11.97;65.42;101620.47;5076619;28;20469;-72
2023/10/17 12:45:25;;;;;;;2.93;0.60;;;;;;;11.96;66.81;101621.56;5075990;28;20437;-72
2023/10/17 12:47:51;;;;;;;1.90;0.40;;;;;;;11.97;66.14;101620.47;5076208;28;20496;-72
2023/10/17 12:50:19;;;;;;;2.00;0.50;;;;;;;12.06;66.48;101618.75;5076302;28;20433;-72
2023/10/17 12:52:45;;;;;;;1.90;0.50;;;;;;;12.07;65.69;101618.44;5075926;28;20917;-73
2023/10/17 12:55:12;;;;;;;2.00;0.53;;;;;;;12.08;63.79;101606.47;5076185;28;20502;-71
2023/10/17 12:57:39;;;;;;;1.90;0.50;;;;;;;12.10;63.58;101603.50;5076079;28;20551;-71
2023/10/17 13:00:09;;;;;;;2.20;0.40;;;;;;;12.11;64.59;101594.25;5076507;28;20444;-72
2023/10/17 13:02:38;;;;;;;1.80;0.50;;;;;;;12.14;63.71;101596.41;5075877;28;20469;-71
2023/10/17 13:05:09;;;;;;;1.87;0.43;;;;;;;12.25;62.35;101588.94;5076033;28;20444;-71
2023/10/17 13:07:35;;;;;;;1.80;0.43;;;;;;;12.20;61.80;101576.22;5075485;28;20453;-71
2023/10/17 13:10:03;;;;;;;2.07;0.47;;;;;;;12.25;63.59;101575.38;5076034;28;20461;-71
2023/10/17 13:12:29;;;;;;;1.80;0.40;;;;;;;12.24;64.70;101580.00;5075670;28;20995;-71
2023/10/17 13:14:56;;;;;;;2.87;0.90;;;;;;;12.28;64.01;101583.75;5076177;28;20443;-71
2023/10/17 13:17:24;;;;;;;1.73;0.37;;;;;;;12.29;61.63;101585.38;5075583;28;21056;-71
2023/10/17 13:19:52;;;;;;;1.90;0.57;;;;;;;12.22;61.49;101584.91;5075873;28;20453;-72